Quirinopolis, Brazil
Current Conditions -  °F | °C
As of 7:28 PM on Monday 24 Nov 2014 (Local Time) from SBUL Reporting Station
Thunderstorm Thunderstorm  
Wind Chill: 70°   Ceiling: 900
Heat Index: 70°   Visibility: 3mi
Dew Point: 66°   Wind: 5mph
Humidity: 88%   Direction: 120°ESE
Pressure: 30"   Gusts: NA
Location:  18.45°S, 50.45°W
Report Text: SBUL 242128Z 12004KT 070V190 5000 -TSRA BKN009 SCT030 SCT040CB21/19 Q1016
Loading
Personal Weather Stations






























Interactive Weather Map New forecast layout! Learn more

10-Day Weather Forecast

Advertisements
Track Severe Weather on mobile